sensor_id;sensor_type;location;lat;lon;timestamp;temperature;humidity
43183;DHT22;28802;38.578;-0.066;2022-11-27T00:01:09;10.30;99.90
43183;DHT22;28802;38.578;-0.066;2022-11-27T00:03:35;10.30;99.90
43183;DHT22;28802;38.578;-0.066;2022-11-27T00:06:01;10.10;99.90
43183;DHT22;28802;38.578;-0.066;2022-11-27T00:08:27;10.10;99.90
43183;DHT22;28802;38.578;-0.066;2022-11-27T00:10:53;10.10;99.90
43183;DHT22;28802;38.578;-0.066;2022-11-27T00:13:18;10.20;99.90
43183;DHT22;28802;38.578;-0.066;2022-11-27T00:15:44;10.20;99.90
43183;DHT22;28802;38.578;-0.066;2022-11-27T00:18:10;10.30;99.90
43183;DHT22;28802;38.578;-0.066;2022-11-27T00:20:36;10.20;99.90
43183;DHT22;28802;38.578;-0.066;2022-11-27T00:23:02;10.20;99.90
43183;DHT22;28802;38.578;-0.066;2022-11-27T00:25:28;10.30;99.90
43183;DHT22;28802;38.578;-0.066;2022-11-27T00:27:54;10.30;99.90
43183;DHT22;28802;38.578;-0.066;2022-11-27T00:30:20;10.30;99.90
43183;DHT22;28802;38.578;-0.066;2022-11-27T00:32:46;10.20;99.90
43183;DHT22;28802;38.578;-0.066;2022-11-27T00:35:12;10.20;99.90
43183;DHT22;28802;38.578;-0.066;2022-11-27T00:37:38;10.20;99.90
43183;DHT22;28802;38.578;-0.066;2022-11-27T00:40:04;10.10;99.90
43183;DHT22;28802;38.578;-0.066;2022-11-27T00:42:30;10.10;99.90
43183;DHT22;28802;38.578;-0.066;2022-11-27T00:44:56;10.20;99.90
43183;DHT22;28802;38.578;-0.066;2022-11-27T00:47:22;10.10;99.90
43183;DHT22;28802;38.578;-0.066;2022-11-27T00:49:48;10.10;99.90
43183;DHT22;28802;38.578;-0.066;2022-11-27T00:52:14;10.10;99.90
43183;DHT22;28802;38.578;-0.066;2022-11-27T00:54:39;10.10;99.90
43183;DHT22;28802;38.578;-0.066;2022-11-27T00:57:05;10.10;99.90
43183;DHT22;28802;38.578;-0.066;2022-11-27T00:59:31;10.10;99.90
43183;DHT22;28802;38.578;-0.066;2022-11-27T01:01:57;10.00;99.90
43183;DHT22;28802;38.578;-0.066;2022-11-27T01:04:23;9.90;99.90
43183;DHT22;28802;38.578;-0.066;2022-11-27T01:06:49;9.90;99.90
43183;DHT22;28802;38.578;-0.066;2022-11-27T01:09:15;9.90;99.90
43183;DHT22;28802;38.578;-0.066;2022-11-27T01:11:41;9.90;99.90
43183;DHT22;28802;38.578;-0.066;2022-11-27T01:14:18;9.90;99.90
43183;DHT22;28802;38.578;-0.066;2022-11-27T01:16:44;9.80;99.90
43183;DHT22;28802;38.578;-0.066;2022-11-27T01:19:12;9.90;99.90
43183;DHT22;28802;38.578;-0.066;2022-11-27T01:21:38;9.90;99.90
43183;DHT22;28802;38.578;-0.066;2022-11-27T01:24:05;9.90;99.90
43183;DHT22;28802;38.578;-0.066;2022-11-27T01:26:31;10.00;99.90
43183;DHT22;28802;38.578;-0.066;2022-11-27T01:28:58;10.00;99.90
43183;DHT22;28802;38.578;-0.066;2022-11-27T01:31:27;9.90;99.90
43183;DHT22;28802;38.578;-0.066;2022-11-27T01:33:56;9.80;99.90
43183;DHT22;28802;38.578;-0.066;2022-11-27T01:36:22;9.70;99.90
43183;DHT22;28802;38.578;-0.066;2022-11-27T01:38:49;9.70;99.90
43183;DHT22;28802;38.578;-0.066;2022-11-27T01:41:29;9.70;99.90
43183;DHT22;28802;38.578;-0.066;2022-11-27T01:44:00;9.70;99.90
43183;DHT22;28802;38.578;-0.066;2022-11-27T01:49:02;9.50;99.90
43183;DHT22;28802;38.578;-0.066;2022-11-27T01:51:30;9.40;99.90
43183;DHT22;28802;38.578;-0.066;2022-11-27T01:53:56;9.50;99.90
43183;DHT22;28802;38.578;-0.066;2022-11-27T01:56:23;9.50;99.90
43183;DHT22;28802;38.578;-0.066;2022-11-27T01:58:51;9.50;99.90
43183;DHT22;28802;38.578;-0.066;2022-11-27T02:01:17;9.50;99.90
43183;DHT22;28802;38.578;-0.066;2022-11-27T02:03:43;9.40;99.90
43183;DHT22;28802;38.578;-0.066;2022-11-27T02:06:12;9.40;99.90
43183;DHT22;28802;38.578;-0.066;2022-11-27T02:08:39;9.40;99.90
43183;DHT22;28802;38.578;-0.066;2022-11-27T02:11:14;9.50;99.90
43183;DHT22;28802;38.578;-0.066;2022-11-27T02:22:24;9.50;99.90
43183;DHT22;28802;38.578;-0.066;2022-11-27T02:30:18;9.50;99.90
43183;DHT22;28802;38.578;-0.066;2022-11-27T02:32:57;9.50;99.90
43183;DHT22;28802;38.578;-0.066;2022-11-27T02:35:51;9.60;99.90
43183;DHT22;28802;38.578;-0.066;2022-11-27T02:40:59;9.50;99.90
43183;DHT22;28802;38.578;-0.066;2022-11-27T02:43:41;9.40;99.90
43183;DHT22;28802;38.578;-0.066;2022-11-27T02:46:10;9.50;99.90
43183;DHT22;28802;38.578;-0.066;2022-11-27T02:48:42;9.40;99.90
43183;DHT22;28802;38.578;-0.066;2022-11-27T02:51:10;9.40;99.90
43183;DHT22;28802;38.578;-0.066;2022-11-27T02:53:43;9.40;99.90
43183;DHT22;28802;38.578;-0.066;2022-11-27T02:56:15;9.40;99.90
43183;DHT22;28802;38.578;-0.066;2022-11-27T02:58:44;9.30;99.90
43183;DHT22;28802;38.578;-0.066;2022-11-27T03:01:11;9.40;99.90
43183;DHT22;28802;38.578;-0.066;2022-11-27T03:03:46;9.40;99.90
43183;DHT22;28802;38.578;-0.066;2022-11-27T03:06:19;9.40;99.90
43183;DHT22;28802;38.578;-0.066;2022-11-27T03:08:55;9.40;99.90
43183;DHT22;28802;38.578;-0.066;2022-11-27T03:11:22;9.40;99.90
43183;DHT22;28802;38.578;-0.066;2022-11-27T03:13:51;9.30;99.90
43183;DHT22;28802;38.578;-0.066;2022-11-27T03:16:49;9.30;99.90
43183;DHT22;28802;38.578;-0.066;2022-11-27T03:21:56;9.20;99.90
43183;DHT22;28802;38.578;-0.066;2022-11-27T03:24:22;9.30;99.90
43183;DHT22;28802;38.578;-0.066;2022-11-27T03:26:49;9.20;99.90
43183;DHT22;28802;38.578;-0.066;2022-11-27T03:29:22;9.30;99.90
43183;DHT22;28802;38.578;-0.066;2022-11-27T03:31:49;9.30;99.90
43183;DHT22;28802;38.578;-0.066;2022-11-27T03:34:15;9.30;99.90
43183;DHT22;28802;38.578;-0.066;2022-11-27T03:36:41;9.30;99.90
43183;DHT22;28802;38.578;-0.066;2022-11-27T03:39:07;9.30;99.90
43183;DHT22;28802;38.578;-0.066;2022-11-27T03:44:07;9.20;99.90
43183;DHT22;28802;38.578;-0.066;2022-11-27T03:50:52;9.20;99.90
43183;DHT22;28802;38.578;-0.066;2022-11-27T03:53:09;9.20;99.90
43183;DHT22;28802;38.578;-0.066;2022-11-27T03:56:06;9.10;99.90
43183;DHT22;28802;38.578;-0.066;2022-11-27T04:01:38;9.10;99.90
43183;DHT22;28802;38.578;-0.066;2022-11-27T04:04:04;9.00;99.90
43183;DHT22;28802;38.578;-0.066;2022-11-27T04:06:30;9.00;99.90
43183;DHT22;28802;38.578;-0.066;2022-11-27T04:08:56;9.00;99.90
43183;DHT22;28802;38.578;-0.066;2022-11-27T04:11:22;9.00;99.90
43183;DHT22;28802;38.578;-0.066;2022-11-27T04:13:48;8.90;99.90
43183;DHT22;28802;38.578;-0.066;2022-11-27T04:16:17;8.90;99.90
43183;DHT22;28802;38.578;-0.066;2022-11-27T04:18:43;9.00;99.90
43183;DHT22;28802;38.578;-0.066;2022-11-27T04:21:09;8.90;99.90
43183;DHT22;28802;38.578;-0.066;2022-11-27T04:23:36;8.90;99.90
43183;DHT22;28802;38.578;-0.066;2022-11-27T04:26:03;8.90;99.90
43183;DHT22;28802;38.578;-0.066;2022-11-27T04:28:29;8.90;99.90
43183;DHT22;28802;38.578;-0.066;2022-11-27T04:30:55;8.90;99.90
43183;DHT22;28802;38.578;-0.066;2022-11-27T04:33:22;8.90;99.90
43183;DHT22;28802;38.578;-0.066;2022-11-27T04:35:48;8.90;99.90
43183;DHT22;28802;38.578;-0.066;2022-11-27T04:38:14;8.90;99.90
43183;DHT22;28802;38.578;-0.066;2022-11-27T04:40:40;8.90;99.90
43183;DHT22;28802;38.578;-0.066;2022-11-27T04:43:06;8.90;99.90
43183;DHT22;28802;38.578;-0.066;2022-11-27T04:45:32;8.90;99.90
43183;DHT22;28802;38.578;-0.066;2022-11-27T04:47:58;8.90;99.90
43183;DHT22;28802;38.578;-0.066;2022-11-27T04:50:24;9.00;99.90
43183;DHT22;28802;38.578;-0.066;2022-11-27T04:52:50;8.90;99.90
43183;DHT22;28802;38.578;-0.066;2022-11-27T04:55:16;9.00;99.90
43183;DHT22;28802;38.578;-0.066;2022-11-27T04:57:42;8.90;99.90
43183;DHT22;28802;38.578;-0.066;2022-11-27T05:00:10;9.00;99.90
43183;DHT22;28802;38.578;-0.066;2022-11-27T05:02:36;9.00;99.90
43183;DHT22;28802;38.578;-0.066;2022-11-27T05:05:03;9.00;99.90
43183;DHT22;28802;38.578;-0.066;2022-11-27T05:07:28;9.00;99.90
43183;DHT22;28802;38.578;-0.066;2022-11-27T05:09:54;9.00;99.90
43183;DHT22;28802;38.578;-0.066;2022-11-27T05:12:20;9.10;99.90
43183;DHT22;28802;38.578;-0.066;2022-11-27T05:14:46;9.00;99.90
43183;DHT22;28802;38.578;-0.066;2022-11-27T05:17:12;8.90;99.90
43183;DHT22;28802;38.578;-0.066;2022-11-27T05:19:38;8.90;99.90
43183;DHT22;28802;38.578;-0.066;2022-11-27T05:22:04;8.90;99.90
43183;DHT22;28802;38.578;-0.066;2022-11-27T05:24:30;8.80;99.90
43183;DHT22;28802;38.578;-0.066;2022-11-27T05:26:56;8.80;99.90
43183;DHT22;28802;38.578;-0.066;2022-11-27T05:29:24;8.80;99.90
43183;DHT22;28802;38.578;-0.066;2022-11-27T05:31:50;8.80;99.90
43183;DHT22;28802;38.578;-0.066;2022-11-27T05:34:16;8.80;99.90
43183;DHT22;28802;38.578;-0.066;2022-11-27T05:36:43;8.90;99.90
43183;DHT22;28802;38.578;-0.066;2022-11-27T05:39:09;8.90;99.90
43183;DHT22;28802;38.578;-0.066;2022-11-27T05:41:37;8.80;99.90
43183;DHT22;28802;38.578;-0.066;2022-11-27T05:44:04;8.90;99.90
43183;DHT22;28802;38.578;-0.066;2022-11-27T05:46:30;8.90;99.90
43183;DHT22;28802;38.578;-0.066;2022-11-27T05:48:56;8.90;99.90
43183;DHT22;28802;38.578;-0.066;2022-11-27T05:51:22;8.90;99.90
43183;DHT22;28802;38.578;-0.066;2022-11-27T05:53:48;8.80;99.90
43183;DHT22;28802;38.578;-0.066;2022-11-27T05:56:16;8.80;99.90
43183;DHT22;28802;38.578;-0.066;2022-11-27T05:58:43;8.70;99.90
43183;DHT22;28802;38.578;-0.066;2022-11-27T06:01:11;8.80;99.90
43183;DHT22;28802;38.578;-0.066;2022-11-27T06:03:37;8.70;99.90
43183;DHT22;28802;38.578;-0.066;2022-11-27T06:06:29;8.80;99.90
43183;DHT22;28802;38.578;-0.066;2022-11-27T06:08:55;8.70;99.90
43183;DHT22;28802;38.578;-0.066;2022-11-27T06:11:22;8.70;99.90
43183;DHT22;28802;38.578;-0.066;2022-11-27T06:13:48;8.70;99.90
43183;DHT22;28802;38.578;-0.066;2022-11-27T06:16:18;8.70;99.90
43183;DHT22;28802;38.578;-0.066;2022-11-27T06:18:44;8.60;99.90
43183;DHT22;28802;38.578;-0.066;2022-11-27T06:21:14;8.60;99.90
43183;DHT22;28802;38.578;-0.066;2022-11-27T06:23:41;8.60;99.90
43183;DHT22;28802;38.578;-0.066;2022-11-27T06:28:36;8.50;99.90
43183;DHT22;28802;38.578;-0.066;2022-11-27T06:31:07;8.50;99.90
43183;DHT22;28802;38.578;-0.066;2022-11-27T06:33:34;8.40;99.90
43183;DHT22;28802;38.578;-0.066;2022-11-27T06:36:01;8.50;99.90
43183;DHT22;28802;38.578;-0.066;2022-11-27T06:38:27;8.50;99.90
43183;DHT22;28802;38.578;-0.066;2022-11-27T06:40:53;8.50;99.90
43183;DHT22;28802;38.578;-0.066;2022-11-27T06:43:18;8.60;99.90
43183;DHT22;28802;38.578;-0.066;2022-11-27T06:45:54;8.50;99.90
43183;DHT22;28802;38.578;-0.066;2022-11-27T06:48:20;8.40;99.90
43183;DHT22;28802;38.578;-0.066;2022-11-27T06:50:45;8.60;99.90
43183;DHT22;28802;38.578;-0.066;2022-11-27T06:53:11;8.70;99.90
43183;DHT22;28802;38.578;-0.066;2022-11-27T06:55:37;8.70;99.90
43183;DHT22;28802;38.578;-0.066;2022-11-27T06:58:03;8.70;99.90
43183;DHT22;28802;38.578;-0.066;2022-11-27T07:00:29;8.70;99.90
43183;DHT22;28802;38.578;-0.066;2022-11-27T07:02:55;8.60;99.90
43183;DHT22;28802;38.578;-0.066;2022-11-27T07:05:21;8.60;99.90
43183;DHT22;28802;38.578;-0.066;2022-11-27T07:07:48;8.70;99.90
43183;DHT22;28802;38.578;-0.066;2022-11-27T07:10:13;8.80;99.90
43183;DHT22;28802;38.578;-0.066;2022-11-27T07:12:39;9.00;99.90
43183;DHT22;28802;38.578;-0.066;2022-11-27T07:15:07;9.30;99.90
43183;DHT22;28802;38.578;-0.066;2022-11-27T07:17:33;9.70;99.90
43183;DHT22;28802;38.578;-0.066;2022-11-27T07:19:58;9.60;99.90
43183;DHT22;28802;38.578;-0.066;2022-11-27T07:22:24;9.50;99.90
43183;DHT22;28802;38.578;-0.066;2022-11-27T07:24:50;9.60;99.90
43183;DHT22;28802;38.578;-0.066;2022-11-27T07:27:16;9.70;99.90
43183;DHT22;28802;38.578;-0.066;2022-11-27T07:29:42;9.90;99.90
43183;DHT22;28802;38.578;-0.066;2022-11-27T07:32:08;10.00;99.90
43183;DHT22;28802;38.578;-0.066;2022-11-27T07:34:34;10.00;99.90
43183;DHT22;28802;38.578;-0.066;2022-11-27T07:37:00;10.00;99.90
43183;DHT22;28802;38.578;-0.066;2022-11-27T07:39:26;10.10;99.90
43183;DHT22;28802;38.578;-0.066;2022-11-27T07:41:52;10.30;99.90
43183;DHT22;28802;38.578;-0.066;2022-11-27T07:44:18;10.40;99.90
43183;DHT22;28802;38.578;-0.066;2022-11-27T07:46:44;10.90;99.90
43183;DHT22;28802;38.578;-0.066;2022-11-27T07:49:10;11.30;99.90
43183;DHT22;28802;38.578;-0.066;2022-11-27T07:51:35;12.00;99.90
43183;DHT22;28802;38.578;-0.066;2022-11-27T07:54:01;13.00;99.90
43183;DHT22;28802;38.578;-0.066;2022-11-27T07:56:27;13.60;99.90
43183;DHT22;28802;38.578;-0.066;2022-11-27T07:58:55;13.50;99.90
43183;DHT22;28802;38.578;-0.066;2022-11-27T08:01:21;13.50;99.90
43183;DHT22;28802;38.578;-0.066;2022-11-27T08:03:47;14.10;99.90
43183;DHT22;28802;38.578;-0.066;2022-11-27T08:06:16;14.20;99.90
43183;DHT22;28802;38.578;-0.066;2022-11-27T08:08:42;14.80;99.90
43183;DHT22;28802;38.578;-0.066;2022-11-27T08:11:16;15.40;99.90
43183;DHT22;28802;38.578;-0.066;2022-11-27T08:13:42;15.00;99.90
43183;DHT22;28802;38.578;-0.066;2022-11-27T08:16:08;15.00;99.90
43183;DHT22;28802;38.578;-0.066;2022-11-27T08:18:34;15.10;99.90
43183;DHT22;28802;38.578;-0.066;2022-11-27T08:21:00;15.20;99.90
43183;DHT22;28802;38.578;-0.066;2022-11-27T08:23:26;15.70;99.90
43183;DHT22;28802;38.578;-0.066;2022-11-27T08:25:51;16.70;99.90
43183;DHT22;28802;38.578;-0.066;2022-11-27T08:28:18;17.00;99.90
43183;DHT22;28802;38.578;-0.066;2022-11-27T08:30:43;17.50;99.90
43183;DHT22;28802;38.578;-0.066;2022-11-27T08:33:11;17.90;99.90
43183;DHT22;28802;38.578;-0.066;2022-11-27T08:35:37;18.60;99.90
43183;DHT22;28802;38.578;-0.066;2022-11-27T08:38:03;18.70;99.90
43183;DHT22;28802;38.578;-0.066;2022-11-27T08:40:29;19.00;99.90
43183;DHT22;28802;38.578;-0.066;2022-11-27T08:42:57;19.30;99.90
43183;DHT22;28802;38.578;-0.066;2022-11-27T08:45:23;19.50;99.90
43183;DHT22;28802;38.578;-0.066;2022-11-27T08:47:49;19.90;99.90
43183;DHT22;28802;38.578;-0.066;2022-11-27T08:50:14;20.60;99.90
43183;DHT22;28802;38.578;-0.066;2022-11-27T08:52:40;20.40;99.90
43183;DHT22;28802;38.578;-0.066;2022-11-27T08:55:07;20.50;99.90
43183;DHT22;28802;38.578;-0.066;2022-11-27T08:57:32;20.90;99.90
43183;DHT22;28802;38.578;-0.066;2022-11-27T08:59:58;21.10;99.90
43183;DHT22;28802;38.578;-0.066;2022-11-27T09:02:24;21.20;99.90
43183;DHT22;28802;38.578;-0.066;2022-11-27T09:04:51;21.30;99.90
43183;DHT22;28802;38.578;-0.066;2022-11-27T09:07:16;20.00;99.90
43183;DHT22;28802;38.578;-0.066;2022-11-27T09:09:42;19.70;99.90
43183;DHT22;28802;38.578;-0.066;2022-11-27T09:12:08;20.30;99.90
43183;DHT22;28802;38.578;-0.066;2022-11-27T09:14:34;21.00;99.90
43183;DHT22;28802;38.578;-0.066;2022-11-27T09:17:00;21.50;99.90
43183;DHT22;28802;38.578;-0.066;2022-11-27T09:19:26;21.70;99.90
43183;DHT22;28802;38.578;-0.066;2022-11-27T09:21:52;22.10;99.90
43183;DHT22;28802;38.578;-0.066;2022-11-27T09:24:18;22.70;99.90
43183;DHT22;28802;38.578;-0.066;2022-11-27T09:26:44;23.00;99.90
43183;DHT22;28802;38.578;-0.066;2022-11-27T09:29:10;22.80;99.90
43183;DHT22;28802;38.578;-0.066;2022-11-27T09:31:35;22.70;99.90
43183;DHT22;28802;38.578;-0.066;2022-11-27T09:34:01;22.70;99.90
43183;DHT22;28802;38.578;-0.066;2022-11-27T09:36:29;23.00;99.90
43183;DHT22;28802;38.578;-0.066;2022-11-27T09:38:57;23.60;99.90
43183;DHT22;28802;38.578;-0.066;2022-11-27T09:44:26;23.40;99.90
43183;DHT22;28802;38.578;-0.066;2022-11-27T09:46:54;22.70;99.90
43183;DHT22;28802;38.578;-0.066;2022-11-27T09:49:52;22.90;99.90
43183;DHT22;28802;38.578;-0.066;2022-11-27T09:52:26;22.90;99.90
43183;DHT22;28802;38.578;-0.066;2022-11-27T09:55:00;22.10;99.90
43183;DHT22;28802;38.578;-0.066;2022-11-27T09:57:30;21.30;99.90
43183;DHT22;28802;38.578;-0.066;2022-11-27T10:00:02;20.60;99.90
43183;DHT22;28802;38.578;-0.066;2022-11-27T10:02:33;20.10;99.90
43183;DHT22;28802;38.578;-0.066;2022-11-27T10:05:02;20.00;99.90
43183;DHT22;28802;38.578;-0.066;2022-11-27T10:17:57;20.90;99.90
43183;DHT22;28802;38.578;-0.066;2022-11-27T10:20:35;21.20;99.90
43183;DHT22;28802;38.578;-0.066;2022-11-27T10:26:08;20.90;99.90
43183;DHT22;28802;38.578;-0.066;2022-11-27T10:28:55;21.10;99.90
43183;DHT22;28802;38.578;-0.066;2022-11-27T10:31:36;20.80;99.90
43183;DHT22;28802;38.578;-0.066;2022-11-27T10:37:36;20.80;99.90
43183;DHT22;28802;38.578;-0.066;2022-11-27T10:45:26;20.70;99.90
43183;DHT22;28802;38.578;-0.066;2022-11-27T10:47:54;21.00;99.90
43183;DHT22;28802;38.578;-0.066;2022-11-27T10:50:23;20.40;99.90
43183;DHT22;28802;38.578;-0.066;2022-11-27T10:52:55;20.20;99.90
43183;DHT22;28802;38.578;-0.066;2022-11-27T10:58:21;20.80;99.90
43183;DHT22;28802;38.578;-0.066;2022-11-27T11:01:11;21.10;99.90
43183;DHT22;28802;38.578;-0.066;2022-11-27T11:03:38;20.70;99.90
43183;DHT22;28802;38.578;-0.066;2022-11-27T11:06:17;20.60;99.90
43183;DHT22;28802;38.578;-0.066;2022-11-27T11:08:43;20.70;99.90
43183;DHT22;28802;38.578;-0.066;2022-11-27T11:11:09;20.70;99.90
43183;DHT22;28802;38.578;-0.066;2022-11-27T11:13:45;20.50;99.90
43183;DHT22;28802;38.578;-0.066;2022-11-27T11:16:22;20.50;99.90
43183;DHT22;28802;38.578;-0.066;2022-11-27T11:18:51;21.00;99.90
43183;DHT22;28802;38.578;-0.066;2022-11-27T11:26:45;21.00;99.90
43183;DHT22;28802;38.578;-0.066;2022-11-27T11:29:32;21.10;99.90
43183;DHT22;28802;38.578;-0.066;2022-11-27T11:32:06;20.80;99.90
43183;DHT22;28802;38.578;-0.066;2022-11-27T11:34:33;21.00;99.90
43183;DHT22;28802;38.578;-0.066;2022-11-27T11:37:01;20.90;99.90
43183;DHT22;28802;38.578;-0.066;2022-11-27T11:40:00;20.50;99.90
43183;DHT22;28802;38.578;-0.066;2022-11-27T11:42:34;20.40;99.90
43183;DHT22;28802;38.578;-0.066;2022-11-27T11:47:44;20.30;99.90
43183;DHT22;28802;38.578;-0.066;2022-11-27T12:02:00;20.40;99.90
43183;DHT22;28802;38.578;-0.066;2022-11-27T12:11:06;20.40;99.90
43183;DHT22;28802;38.578;-0.066;2022-11-27T12:13:22;20.40;99.90
43183;DHT22;28802;38.578;-0.066;2022-11-27T12:21:44;20.00;99.90
43183;DHT22;28802;38.578;-0.066;2022-11-27T12:24:32;19.70;99.90
43183;DHT22;28802;38.578;-0.066;2022-11-27T12:37:59;19.30;99.90
43183;DHT22;28802;38.578;-0.066;2022-11-27T12:46:10;19.50;99.90
43183;DHT22;28802;38.578;-0.066;2022-11-27T12:49:01;19.30;99.90
43183;DHT22;28802;38.578;-0.066;2022-11-27T12:51:57;19.10;99.90
43183;DHT22;28802;38.578;-0.066;2022-11-27T12:54:50;19.50;99.90
43183;DHT22;28802;38.578;-0.066;2022-11-27T12:57:27;19.70;99.90
43183;DHT22;28802;38.578;-0.066;2022-11-27T13:00:00;19.30;99.90
43183;DHT22;28802;38.578;-0.066;2022-11-27T13:06:18;19.00;99.90
43183;DHT22;28802;38.578;-0.066;2022-11-27T13:09:05;18.80;99.90
43183;DHT22;28802;38.578;-0.066;2022-11-27T13:11:36;18.50;99.90
43183;DHT22;28802;38.578;-0.066;2022-11-27T13:14:09;18.40;99.90
43183;DHT22;28802;38.578;-0.066;2022-11-27T13:16:41;18.30;99.90
43183;DHT22;28802;38.578;-0.066;2022-11-27T13:22:08;18.20;99.90
43183;DHT22;28802;38.578;-0.066;2022-11-27T13:24:39;18.20;99.90
43183;DHT22;28802;38.578;-0.066;2022-11-27T13:27:17;18.10;99.90
43183;DHT22;28802;38.578;-0.066;2022-11-27T13:29:53;18.00;99.90
43183;DHT22;28802;38.578;-0.066;2022-11-27T13:32:30;17.90;99.90
43183;DHT22;28802;38.578;-0.066;2022-11-27T13:35:01;18.00;99.90
43183;DHT22;28802;38.578;-0.066;2022-11-27T13:37:37;17.90;99.90
43183;DHT22;28802;38.578;-0.066;2022-11-27T13:40:18;18.00;99.90
43183;DHT22;28802;38.578;-0.066;2022-11-27T13:42:49;17.90;99.90
43183;DHT22;28802;38.578;-0.066;2022-11-27T13:48:27;17.90;99.90
43183;DHT22;28802;38.578;-0.066;2022-11-27T13:50:55;17.90;99.90
43183;DHT22;28802;38.578;-0.066;2022-11-27T13:53:36;17.90;99.90
43183;DHT22;28802;38.578;-0.066;2022-11-27T13:56:03;17.90;99.90
43183;DHT22;28802;38.578;-0.066;2022-11-27T13:58:35;17.90;99.90
43183;DHT22;28802;38.578;-0.066;2022-11-27T14:01:20;18.00;99.90
43183;DHT22;28802;38.578;-0.066;2022-11-27T14:03:48;17.90;99.90
43183;DHT22;28802;38.578;-0.066;2022-11-27T14:06:27;18.00;99.90
43183;DHT22;28802;38.578;-0.066;2022-11-27T14:08:56;18.10;99.90
43183;DHT22;28802;38.578;-0.066;2022-11-27T14:11:39;18.00;99.90
43183;DHT22;28802;38.578;-0.066;2022-11-27T14:14:20;18.00;99.90
43183;DHT22;28802;38.578;-0.066;2022-11-27T14:16:57;17.90;99.90
43183;DHT22;28802;38.578;-0.066;2022-11-27T14:19:56;17.90;99.90
43183;DHT22;28802;38.578;-0.066;2022-11-27T14:22:28;17.90;99.90
43183;DHT22;28802;38.578;-0.066;2022-11-27T14:24:57;17.80;99.90
43183;DHT22;28802;38.578;-0.066;2022-11-27T14:27:25;17.80;99.90
43183;DHT22;28802;38.578;-0.066;2022-11-27T14:29:51;17.80;99.90
43183;DHT22;28802;38.578;-0.066;2022-11-27T14:32:19;17.70;99.90
43183;DHT22;28802;38.578;-0.066;2022-11-27T14:34:46;17.70;99.90
43183;DHT22;28802;38.578;-0.066;2022-11-27T14:37:33;17.70;99.90
43183;DHT22;28802;38.578;-0.066;2022-11-27T14:39:59;17.80;99.90
43183;DHT22;28802;38.578;-0.066;2022-11-27T14:42:26;17.80;99.90
43183;DHT22;28802;38.578;-0.066;2022-11-27T14:45:14;17.80;99.90
43183;DHT22;28802;38.578;-0.066;2022-11-27T14:47:46;17.80;99.90
43183;DHT22;28802;38.578;-0.066;2022-11-27T14:50:13;17.80;99.90
43183;DHT22;28802;38.578;-0.066;2022-11-27T14:52:45;17.80;99.90
43183;DHT22;28802;38.578;-0.066;2022-11-27T14:55:17;17.80;99.90
43183;DHT22;28802;38.578;-0.066;2022-11-27T14:57:47;17.70;99.90
43183;DHT22;28802;38.578;-0.066;2022-11-27T15:00:24;17.70;99.90
43183;DHT22;28802;38.578;-0.066;2022-11-27T15:02:55;17.60;99.90
43183;DHT22;28802;38.578;-0.066;2022-11-27T15:05:32;17.60;99.90
43183;DHT22;28802;38.578;-0.066;2022-11-27T15:08:00;17.60;99.90
43183;DHT22;28802;38.578;-0.066;2022-11-27T15:12:55;17.50;99.90
43183;DHT22;28802;38.578;-0.066;2022-11-27T15:15:26;17.50;99.90
43183;DHT22;28802;38.578;-0.066;2022-11-27T15:18:01;17.30;99.90
43183;DHT22;28802;38.578;-0.066;2022-11-27T15:20:40;17.30;99.90
43183;DHT22;28802;38.578;-0.066;2022-11-27T15:23:29;17.40;99.90
43183;DHT22;28802;38.578;-0.066;2022-11-27T15:28:26;17.40;99.90
43183;DHT22;28802;38.578;-0.066;2022-11-27T15:30:52;17.30;99.90
43183;DHT22;28802;38.578;-0.066;2022-11-27T15:33:32;17.30;99.90
43183;DHT22;28802;38.578;-0.066;2022-11-27T15:36:17;17.30;99.90
43183;DHT22;28802;38.578;-0.066;2022-11-27T15:38:44;17.30;99.90
43183;DHT22;28802;38.578;-0.066;2022-11-27T15:41:25;17.20;99.90
43183;DHT22;28802;38.578;-0.066;2022-11-27T15:43:51;17.20;99.90
43183;DHT22;28802;38.578;-0.066;2022-11-27T15:46:33;17.00;99.90
43183;DHT22;28802;38.578;-0.066;2022-11-27T15:48:59;17.00;99.90
43183;DHT22;28802;38.578;-0.066;2022-11-27T15:51:25;17.10;99.90
43183;DHT22;28802;38.578;-0.066;2022-11-27T15:53:51;17.10;99.90
43183;DHT22;28802;38.578;-0.066;2022-11-27T15:56:20;17.10;99.90
43183;DHT22;28802;38.578;-0.066;2022-11-27T15:58:46;17.00;99.90
43183;DHT22;28802;38.578;-0.066;2022-11-27T16:01:14;17.00;99.90
43183;DHT22;28802;38.578;-0.066;2022-11-27T16:03:40;16.90;99.90
43183;DHT22;28802;38.578;-0.066;2022-11-27T16:06:07;16.80;99.90
43183;DHT22;28802;38.578;-0.066;2022-11-27T16:08:33;16.80;99.90
43183;DHT22;28802;38.578;-0.066;2022-11-27T16:11:01;16.80;99.90
43183;DHT22;28802;38.578;-0.066;2022-11-27T16:13:27;16.80;99.90
43183;DHT22;28802;38.578;-0.066;2022-11-27T16:15:59;16.70;99.90
43183;DHT22;28802;38.578;-0.066;2022-11-27T16:18:27;16.60;99.90
43183;DHT22;28802;38.578;-0.066;2022-11-27T16:21:02;16.80;99.90
43183;DHT22;28802;38.578;-0.066;2022-11-27T16:23:28;16.60;99.90
43183;DHT22;28802;38.578;-0.066;2022-11-27T16:25:57;16.60;99.90
43183;DHT22;28802;38.578;-0.066;2022-11-27T16:28:25;16.70;99.90
43183;DHT22;28802;38.578;-0.066;2022-11-27T16:30:53;16.60;99.90
43183;DHT22;28802;38.578;-0.066;2022-11-27T16:33:19;16.60;99.90
43183;DHT22;28802;38.578;-0.066;2022-11-27T16:35:46;16.50;99.90
43183;DHT22;28802;38.578;-0.066;2022-11-27T16:38:15;16.50;99.90
43183;DHT22;28802;38.578;-0.066;2022-11-27T16:40:41;16.40;99.90
43183;DHT22;28802;38.578;-0.066;2022-11-27T16:43:07;16.40;99.90
43183;DHT22;28802;38.578;-0.066;2022-11-27T16:45:35;16.30;99.90
43183;DHT22;28802;38.578;-0.066;2022-11-27T16:48:02;16.40;99.90
43183;DHT22;28802;38.578;-0.066;2022-11-27T16:50:28;16.30;99.90
43183;DHT22;28802;38.578;-0.066;2022-11-27T16:52:56;16.30;99.90
43183;DHT22;28802;38.578;-0.066;2022-11-27T16:55:24;16.30;99.90
43183;DHT22;28802;38.578;-0.066;2022-11-27T16:57:53;16.30;99.90
43183;DHT22;28802;38.578;-0.066;2022-11-27T17:00:20;16.30;99.90
43183;DHT22;28802;38.578;-0.066;2022-11-27T17:02:46;16.30;99.90
43183;DHT22;28802;38.578;-0.066;2022-11-27T17:05:20;16.20;99.90
43183;DHT22;28802;38.578;-0.066;2022-11-27T17:07:46;16.30;99.90
43183;DHT22;28802;38.578;-0.066;2022-11-27T17:10:12;16.30;99.90
43183;DHT22;28802;38.578;-0.066;2022-11-27T17:12:38;16.30;99.90
43183;DHT22;28802;38.578;-0.066;2022-11-27T17:15:04;16.30;99.90
43183;DHT22;28802;38.578;-0.066;2022-11-27T17:17:31;16.30;99.90
43183;DHT22;28802;38.578;-0.066;2022-11-27T17:20:00;16.40;99.90
43183;DHT22;28802;38.578;-0.066;2022-11-27T17:22:26;16.40;99.90
43183;DHT22;28802;38.578;-0.066;2022-11-27T17:24:52;16.30;99.90
43183;DHT22;28802;38.578;-0.066;2022-11-27T17:27:22;16.40;99.90
43183;DHT22;28802;38.578;-0.066;2022-11-27T17:29:47;16.40;99.90
43183;DHT22;28802;38.578;-0.066;2022-11-27T17:32:13;16.40;99.90
43183;DHT22;28802;38.578;-0.066;2022-11-27T17:34:39;16.40;99.90
43183;DHT22;28802;38.578;-0.066;2022-11-27T17:37:05;16.40;99.90
43183;DHT22;28802;38.578;-0.066;2022-11-27T17:39:32;16.40;99.90
43183;DHT22;28802;38.578;-0.066;2022-11-27T17:41:58;16.40;99.90